Time;durP1;ratioP1;P1;durP2;ratioP2;P2;SDS_P1;SDS_P2;PMS_P1;PMS_P2;Temp;Humidity;BMP_temperature;BMP_pressure;BME280_temperature;BME280_humidity;BME280_pressure;Samples;Min_cycle;Max_cycle;Signal;HPM_P1;HPM_P2
2021/04/21 00:00:48;;;;;;;4.65;2.92;;;;;;;11.58;51.62;100578.56;5142917;27;20377;-86
2021/04/21 00:03:54;;;;;;;3.75;3.15;;;;;;;11.49;51.41;100583.91;5142663;27;20119;-86
2021/04/21 00:07:00;;;;;;;4.40;3.50;;;;;;;11.52;51.42;100578.28;5155315;27;20061;-85
2021/04/21 00:10:06;;;;;;;5.53;2.80;;;;;;;11.49;50.90;100571.31;5142799;27;20054;-85
2021/04/21 00:13:11;;;;;;;5.00;3.17;;;;;;;11.51;50.94;100574.72;5155464;27;20384;-84
2021/04/21 00:16:16;;;;;;;6.40;3.38;;;;;;;11.50;50.93;100577.56;5156073;27;20054;-86
2021/04/21 00:19:24;;;;;;;4.45;3.40;;;;;;;11.52;50.45;100580.97;5155810;27;20050;-86
2021/04/21 00:22:29;;;;;;;3.65;2.92;;;;;;;11.49;50.38;100576.69;5155895;27;20077;-86
2021/04/21 00:25:35;;;;;;;5.90;3.85;;;;;;;11.49;50.49;100575.84;5143004;27;20058;-85
2021/04/21 00:28:41;;;;;;;4.57;3.47;;;;;;;11.51;50.48;100585.47;5155529;27;20049;-83
2021/04/21 00:31:49;;;;;;;5.28;3.42;;;;;;;11.56;50.41;100587.75;5143360;27;20053;-84
2021/04/21 00:34:58;;;;;;;4.85;3.25;;;;;;;11.52;50.71;100611.38;5155438;27;20069;-86
2021/04/21 00:38:08;;;;;;;5.20;3.90;;;;;;;11.06;53.77;100619.88;5155549;27;20050;-84
2021/04/21 00:41:27;;;;;;;6.55;4.50;;;;;;;10.72;55.62;100617.50;5155344;27;20046;-84
2021/04/21 00:44:45;;;;;;;5.68;4.43;;;;;;;10.66;56.24;100618.88;5155214;27;20041;-84
2021/04/21 00:48:21;;;;;;;6.07;4.25;;;;;;;10.51;57.14;100630.03;5154850;27;20042;-86
2021/04/21 00:51:52;;;;;;;7.28;5.20;;;;;;;10.25;57.87;100642.91;5159363;27;20069;-86
2021/04/21 00:54:57;;;;;;;6.22;5.00;;;;;;;10.20;58.12;100629.88;5159260;27;20062;-85
2021/04/21 00:58:12;;;;;;;8.27;5.47;;;;;;;10.19;58.17;100627.34;5158636;27;20045;-84
2021/04/21 01:01:18;;;;;;;8.10;5.20;;;;;;;10.23;58.46;100618.03;5158973;27;20483;-83
2021/04/21 01:04:24;;;;;;;7.88;4.53;;;;;;;10.19;59.17;100620.16;5157159;27;20405;-85
2021/04/21 01:07:36;;;;;;;7.43;4.88;;;;;;;10.16;59.12;100620.38;5128010;27;20042;-84
2021/04/21 01:11:07;;;;;;;6.75;4.85;;;;;;;10.20;59.15;100626.34;5138154;27;20330;-88
2021/04/21 01:14:19;;;;;;;7.25;4.93;;;;;;;10.26;59.30;100617.78;5125587;27;20050;-86
2021/04/21 01:17:28;;;;;;;7.55;4.72;;;;;;;10.34;59.18;100615.34;5141872;27;20041;-87
2021/04/21 01:21:02;;;;;;;6.15;5.07;;;;;;;10.40;58.83;100615.69;5159061;27;20500;-81
2021/04/21 01:24:27;;;;;;;5.97;5.05;;;;;;;10.39;58.91;100627.38;5158898;27;20042;-84
2021/04/21 01:27:42;;;;;;;6.47;5.10;;;;;;;10.46;58.73;100627.75;5159062;27;20054;-84
2021/04/21 01:30:46;;;;;;;6.75;4.90;;;;;;;10.52;58.54;100627.22;5145535;27;20508;-83
2021/04/21 01:33:54;;;;;;;6.25;5.28;;;;;;;10.56;58.30;100625.13;5137758;27;20050;-86
2021/04/21 01:37:01;;;;;;;9.88;5.35;;;;;;;10.25;58.55;100626.81;5146216;27;20046;-84
2021/04/21 01:40:11;;;;;;;6.88;5.55;;;;;;;10.05;59.43;100625.72;5142026;27;20409;-83
2021/04/21 01:43:22;;;;;;;7.60;5.88;;;;;;;10.02;59.45;100617.09;5138026;27;20043;-86
2021/04/21 01:46:29;;;;;;;6.30;5.53;;;;;;;9.94;59.58;100620.41;5155221;27;20054;-84
2021/04/21 01:49:36;;;;;;;9.23;5.50;;;;;;;9.83;59.87;100613.22;5146058;27;20061;-84
2021/04/21 01:53:04;;;;;;;7.50;5.72;;;;;;;9.83;59.83;100610.53;5145535;27;20484;-85
2021/04/21 01:56:17;;;;;;;8.07;6.00;;;;;;;9.64;60.56;100612.13;5145018;27;20601;-84
2021/04/21 01:59:33;;;;;;;7.10;5.72;;;;;;;9.67;60.74;100619.94;5149784;27;20103;-87
2021/04/21 02:02:45;;;;;;;7.63;5.95;;;;;;;9.55;60.80;100620.91;5152843;27;20401;-85
2021/04/21 02:05:59;;;;;;;6.80;5.63;;;;;;;9.40;61.47;100625.66;5144620;27;20050;-85
2021/04/21 02:09:22;;;;;;;8.57;5.70;;;;;;;9.37;61.38;100625.88;5145444;27;20062;-88
2021/04/21 02:12:30;;;;;;;6.70;5.70;;;;;;;9.24;61.27;100629.63;5149337;27;20054;-86
2021/04/21 02:16:01;;;;;;;10.57;6.20;;;;;;;9.15;61.93;100633.88;5124931;27;20057;-84
2021/04/21 02:19:31;;;;;;;8.73;5.93;;;;;;;9.06;62.01;100638.13;5132771;27;20062;-85
2021/04/21 02:22:54;;;;;;;6.75;5.85;;;;;;;9.01;62.47;100639.47;5147057;27;20061;-87
2021/04/21 02:26:12;;;;;;;7.35;5.90;;;;;;;8.95;62.54;100631.88;5157820;27;20061;-87
2021/04/21 02:29:36;;;;;;;6.13;5.50;;;;;;;8.79;63.42;100640.22;5144656;27;20058;-87
2021/04/21 02:32:53;;;;;;;7.22;6.00;;;;;;;8.76;63.43;100628.91;5157738;27;20484;-84
2021/04/21 02:36:03;;;;;;;6.90;5.95;;;;;;;8.77;63.76;100638.63;5137427;27;20050;-87
2021/04/21 02:39:36;;;;;;;9.75;6.05;;;;;;;8.76;63.99;100642.31;5136303;27;20512;-86
2021/04/21 02:42:50;;;;;;;9.00;5.68;;;;;;;8.63;64.43;100633.47;5143901;27;20054;-83
2021/04/21 02:46:23;;;;;;;8.45;5.70;;;;;;;8.58;64.63;100638.31;5148904;27;20045;-82
2021/04/21 02:49:45;;;;;;;7.30;5.68;;;;;;;8.62;64.30;100637.97;5136411;27;20504;-83
2021/04/21 02:53:02;;;;;;;7.45;5.63;;;;;;;8.52;64.40;100643.16;5136436;27;20385;-87
2021/04/21 02:56:32;;;;;;;6.90;5.57;;;;;;;8.49;64.36;100637.22;5123245;27;20046;-87
2021/04/21 02:59:45;;;;;;;7.70;5.22;;;;;;;8.45;64.15;100633.03;5125389;27;20050;-85
2021/04/21 03:02:58;;;;;;;7.05;5.88;;;;;;;8.50;64.07;100628.19;5147627;27;20046;-84
2021/04/21 03:06:11;;;;;;;5.93;5.18;;;;;;;8.38;63.97;100626.44;5139731;27;20053;-86
2021/04/21 03:09:25;;;;;;;5.95;5.07;;;;;;;8.38;63.85;100621.94;5156316;27;20050;-86
2021/04/21 03:12:31;;;;;;;8.90;5.45;;;;;;;8.25;64.29;100618.44;5155225;27;20050;-87
2021/04/21 03:15:43;;;;;;;8.13;5.07;;;;;;;8.23;63.86;100624.84;5142795;27;20054;-86
2021/04/21 03:18:49;;;;;;;6.07;4.68;;;;;;;8.17;63.93;100614.63;5137491;27;20508;-85
2021/04/21 03:22:13;;;;;;;7.03;4.53;;;;;;;8.07;64.13;100608.25;5121901;27;20065;-86
2021/04/21 03:25:24;;;;;;;6.32;4.72;;;;;;;8.13;63.82;100622.00;5125004;27;20043;-85
2021/04/21 03:28:31;;;;;;;5.47;4.38;;;;;;;7.93;63.66;100613.72;5156029;27;20050;-86
2021/04/21 03:31:38;;;;;;;6.22;4.85;;;;;;;8.00;63.87;100617.69;5135268;27;20066;-85
2021/04/21 03:34:46;;;;;;;6.60;4.75;;;;;;;8.01;63.66;100612.22;5153826;27;20042;-87
2021/04/21 03:38:07;;;;;;;4.78;4.22;;;;;;;7.99;63.38;100616.84;5155788;27;20054;-87
2021/04/21 03:41:13;;;;;;;7.88;4.50;;;;;;;7.89;63.85;100615.78;5149280;27;20046;-82
2021/04/21 03:44:18;;;;;;;4.63;3.88;;;;;;;7.83;63.89;100613.56;5135632;27;20053;-87
2021/04/21 03:47:22;;;;;;;7.93;5.15;;;;;;;7.75;64.14;100622.13;5145708;27;20050;-86
2021/04/21 03:50:27;;;;;;;8.43;4.03;;;;;;;7.81;64.03;100626.19;5139525;27;20046;-87
2021/04/21 03:53:37;;;;;;;6.50;4.07;;;;;;;7.82;63.82;100619.88;5122888;27;20046;-84
2021/04/21 03:56:43;;;;;;;8.25;4.40;;;;;;;7.79;64.12;100614.75;5135230;27;20496;-87
2021/04/21 03:59:51;;;;;;;8.43;4.45;;;;;;;7.83;64.08;100613.56;5135177;27;20047;-82
2021/04/21 04:03:03;;;;;;;9.30;4.95;;;;;;;7.77;63.94;100622.03;5137177;27;20058;-86
2021/04/21 04:06:38;;;;;;;6.00;4.50;;;;;;;7.83;63.80;100618.91;5148429;27;20053;-88
2021/04/21 04:09:46;;;;;;;9.80;4.30;;;;;;;7.89;63.44;100607.78;5144601;27;20058;-86
2021/04/21 04:12:53;;;;;;;9.05;4.55;;;;;;;7.70;63.38;100618.91;5124545;27;20050;-85
2021/04/21 04:15:58;;;;;;;9.13;4.65;;;;;;;7.65;63.84;100623.72;5135295;27;20160;-86
2021/04/21 04:19:04;;;;;;;5.72;4.22;;;;;;;7.67;63.69;100627.19;5134814;28;20050;-84
2021/04/21 04:22:13;;;;;;;6.65;4.90;;;;;;;7.72;63.58;100624.19;5134525;28;20042;-85
2021/04/21 04:25:18;;;;;;;9.52;5.43;;;;;;;7.74;63.47;100630.25;5150159;27;20053;-82
2021/04/21 04:28:24;;;;;;;9.70;5.93;;;;;;;7.72;63.29;100634.84;5138985;27;20145;-86
2021/04/21 04:31:29;;;;;;;12.02;6.00;;;;;;;7.79;63.18;100630.78;5114320;27;20072;-77
2021/04/21 04:34:35;;;;;;;12.57;5.93;;;;;;;7.90;62.76;100628.16;5139060;27;20054;-86
2021/04/21 04:37:41;;;;;;;11.35;7.28;;;;;;;7.92;62.71;100636.09;5125730;27;20377;-85
2021/04/21 04:40:49;;;;;;;11.00;6.85;;;;;;;7.87;62.76;100641.78;5138643;27;20496;-81
2021/04/21 04:43:56;;;;;;;10.82;6.75;;;;;;;7.99;62.44;100638.22;5138747;27;20050;-88
2021/04/21 04:47:03;;;;;;;15.43;6.82;;;;;;;8.04;62.15;100646.75;5155530;27;20397;-84
2021/04/21 04:50:19;;;;;;;9.93;5.93;;;;;;;8.06;62.18;100639.47;5158815;27;20054;-87
2021/04/21 04:53:24;;;;;;;12.23;5.47;;;;;;;8.19;61.55;100651.00;5159112;27;20387;-88
2021/04/21 04:56:31;;;;;;;7.85;4.88;;;;;;;8.25;61.67;100642.50;5158771;27;20388;-82
2021/04/21 04:59:37;;;;;;;8.18;4.72;;;;;;;8.51;60.96;100648.63;5159114;27;20037;-88
2021/04/21 05:03:00;;;;;;;62.88;41.30;;;;;;;8.79;59.96;100655.47;5146332;27;20073;-87
2021/04/21 05:06:05;;;;;;;35.00;24.73;;;;;;;9.01;59.05;100656.34;5158074;27;20065;-84
2021/04/21 05:09:13;;;;;;;9.70;5.63;;;;;;;9.28;57.73;100652.53;5158745;27;20069;-84
2021/04/21 05:12:21;;;;;;;9.55;3.47;;;;;;;9.54;57.09;100660.25;5158708;27;20415;-88
2021/04/21 05:15:32;;;;;;;8.25;4.18;;;;;;;9.99;55.63;100666.47;5158847;27;20381;-88
2021/04/21 05:18:36;;;;;;;6.45;3.80;;;;;;;10.49;54.21;100661.53;5155018;27;20096;-85
2021/04/21 05:22:17;;;;;;;9.35;4.13;;;;;;;10.70;52.93;100663.28;5158388;27;20050;-85
2021/04/21 05:26:04;;;;;;;8.25;3.90;;;;;;;11.49;50.87;100669.94;5138733;27;20050;-88
2021/04/21 05:29:38;;;;;;;8.80;3.67;;;;;;;12.19;48.87;100672.69;5143785;27;20041;-85
2021/04/21 05:33:04;;;;;;;7.90;3.90;;;;;;;12.75;46.98;100676.47;5159193;27;20377;-84
2021/04/21 05:36:46;;;;;;;13.27;5.72;;;;;;;13.41;45.54;100680.16;5158386;27;20053;-88
2021/04/21 05:40:12;;;;;;;12.93;5.50;;;;;;;14.26;43.84;100683.56;5158885;27;20050;-86
2021/04/21 05:43:52;;;;;;;13.25;5.10;;;;;;;14.76;42.55;100677.72;5158347;27;20045;-85
2021/04/21 05:47:30;;;;;;;11.30;4.65;;;;;;;14.50;42.82;100684.84;5144713;27;20046;-82
2021/04/21 05:51:11;;;;;;;12.35;4.63;;;;;;;14.30;44.07;100694.88;5145737;27;20042;-78
2021/04/21 05:54:49;;;;;;;8.00;4.30;;;;;;;15.75;40.37;100695.50;5158200;27;20046;-77
2021/04/21 05:58:23;;;;;;;11.07;3.95;;;;;;;15.83;41.05;100692.81;5145802;27;20504;-82
2021/04/21 06:01:30;;;;;;;11.95;3.60;;;;;;;15.72;40.76;100693.94;5125463;27;20405;-84
2021/04/21 06:04:35;;;;;;;10.40;4.15;;;;;;;15.20;42.26;100700.28;5124108;27;20070;-82
2021/04/21 06:07:40;;;;;;;13.93;4.38;;;;;;;15.86;41.43;100698.78;5114863;28;20070;-75
2021/04/21 06:10:44;;;;;;;10.18;3.97;;;;;;;15.77;42.07;100699.75;5115921;28;20050;-76
2021/04/21 06:13:51;;;;;;;12.65;3.40;;;;;;;16.03;41.73;100702.41;5115170;27;20043;-75
2021/04/21 06:16:56;;;;;;;7.90;4.03;;;;;;;15.36;42.68;100706.66;5091733;28;20047;-75
2021/04/21 06:20:01;;;;;;;6.07;3.42;;;;;;;16.51;41.59;100705.34;5101934;27;20051;-76
2021/04/21 06:23:29;;;;;;;9.85;3.70;;;;;;;17.42;39.15;100700.78;5101928;27;20042;-76
2021/04/21 06:26:34;;;;;;;6.95;3.40;;;;;;;18.62;36.88;100707.81;5058879;28;20140;-81
2021/04/21 06:29:40;;;;;;;6.43;3.42;;;;;;;19.11;35.63;100696.63;5062996;28;20501;-80
2021/04/21 06:32:58;;;;;;;6.57;3.28;;;;;;;18.43;36.27;100700.06;5041652;28;20541;-77
2021/04/21 06:36:05;;;;;;;9.43;4.00;;;;;;;17.78;37.52;100712.97;5047582;28;20179;-79
2021/04/21 06:39:11;;;;;;;7.20;3.10;;;;;;;17.56;38.57;100708.25;5046900;28;20525;-75
2021/04/21 06:42:18;;;;;;;6.65;4.18;;;;;;;17.39;39.17;100701.97;5077350;28;20055;-77
2021/04/21 06:45:33;;;;;;;5.32;4.03;;;;;;;17.86;38.56;100703.97;5057703;28;20043;-79
2021/04/21 06:48:39;;;;;;;6.40;3.40;;;;;;;18.20;38.98;100708.13;5056927;28;20043;-78
2021/04/21 06:51:45;;;;;;;5.18;3.50;;;;;;;19.59;36.78;100701.72;5057592;28;20047;-76
2021/04/21 06:55:04;;;;;;;5.18;3.70;;;;;;;22.17;31.96;100695.28;5057673;28;20071;-75
2021/04/21 06:58:22;;;;;;;6.32;3.78;;;;;;;22.23;32.38;100694.47;5122892;27;20045;-81
2021/04/21 07:01:29;;;;;;;14.10;4.88;;;;;;;24.90;28.83;100697.63;5117911;27;20054;-77
2021/04/21 07:04:34;;;;;;;10.88;4.30;;;;;;;26.62;26.71;100701.44;5130085;27;20445;-80
2021/04/21 07:07:38;;;;;;;12.32;5.45;;;;;;;27.80;25.30;100704.44;5117627;27;20054;-77
2021/04/21 07:10:51;;;;;;;5.03;3.53;;;;;;;30.28;22.81;100698.91;5080453;28;20394;-81
2021/04/21 07:13:55;;;;;;;7.45;3.63;;;;;;;32.27;21.27;100704.38;5028759;28;20388;-78
2021/04/21 07:17:02;;;;;;;7.10;3.20;;;;;;;34.02;19.15;100703.25;5046576;28;20058;-81
2021/04/21 07:20:08;;;;;;;5.18;3.20;;;;;;;36.39;17.67;100703.88;5045097;28;20051;-78
2021/04/21 07:23:20;;;;;;;4.93;3.20;;;;;;;36.54;17.66;100706.53;5058080;28;20074;-81
2021/04/21 07:26:44;;;;;;;12.43;4.15;;;;;;;35.97;18.28;100710.16;5068288;28;20203;-79
2021/04/21 07:29:49;;;;;;;6.13;3.58;;;;;;;34.31;19.74;100711.03;5057149;28;20426;-78
2021/04/21 07:32:57;;;;;;;7.50;4.00;;;;;;;35.83;18.28;100709.16;5068700;28;20051;-79
2021/04/21 07:36:17;;;;;;;7.47;3.55;;;;;;;37.99;17.17;100710.34;5091418;28;20043;-80
2021/04/21 07:39:30;;;;;;;8.63;3.83;;;;;;;37.37;17.07;100712.41;5068357;28;20549;-80
2021/04/21 07:42:34;;;;;;;5.93;4.22;;;;;;;38.59;16.72;100708.38;5121433;27;20050;-82
2021/04/21 07:45:54;;;;;;;4.32;3.53;;;;;;;39.52;15.25;100716.16;5110131;27;20046;-80
2021/04/21 07:49:07;;;;;;;8.93;3.72;;;;;;;37.94;16.57;100716.88;5109950;27;20054;-75
2021/04/21 07:52:32;;;;;;;5.95;3.90;;;;;;;39.03;15.58;100722.59;5109813;27;20046;-74
2021/04/21 07:55:36;;;;;;;7.97;3.97;;;;;;;38.44;15.81;100714.28;5109707;27;20401;-76
2021/04/21 07:58:42;;;;;;;6.80;3.58;;;;;;;37.33;16.97;100724.53;5120809;27;20054;-79
2021/04/21 08:01:48;;;;;;;25.40;22.83;;;;;;;37.23;16.94;100722.72;5109541;27;20058;-78
2021/04/21 08:04:58;;;;;;;9.77;5.95;;;;;;;34.91;19.13;100721.19;5109422;27;20114;-77
2021/04/21 08:08:06;;;;;;;8.75;4.32;;;;;;;36.53;18.07;100718.84;5101092;28;20097;-78
2021/04/21 08:11:23;;;;;;;8.15;4.72;;;;;;;37.64;16.88;100711.75;5088559;28;20550;-80
2021/04/21 08:14:38;;;;;;;5.88;4.03;;;;;;;36.70;16.42;100722.00;5089170;28;20059;-78
2021/04/21 08:18:12;;;;;;;7.15;3.97;;;;;;;37.82;15.60;100721.25;5089268;28;20067;-76
2021/04/21 08:21:33;;;;;;;8.18;3.95;;;;;;;35.77;17.26;100718.72;5101118;28;20166;-86
2021/04/21 08:24:44;;;;;;;8.80;3.97;;;;;;;36.94;15.97;100725.63;5089552;28;20051;-83
2021/04/21 08:27:49;;;;;;;11.20;4.97;;;;;;;36.30;17.25;100722.41;5089416;28;20047;-81
2021/04/21 08:31:01;;;;;;;8.50;3.72;;;;;;;33.99;19.35;100720.53;5100809;28;20047;-83
2021/04/21 08:34:08;;;;;;;6.15;4.32;;;;;;;32.45;20.56;100720.63;5100979;28;20055;-82
2021/04/21 08:37:14;;;;;;;6.28;4.20;;;;;;;30.80;21.84;100734.56;5089665;28;20038;-80
2021/04/21 08:40:21;;;;;;;9.13;5.22;;;;;;;32.43;20.41;100736.75;5089027;28;20047;-83
2021/04/21 08:43:27;;;;;;;5.22;4.10;;;;;;;30.12;22.54;100734.97;5100814;28;20501;-80
2021/04/21 08:46:34;;;;;;;9.05;4.90;;;;;;;28.86;23.90;100744.47;5100864;28;20070;-79
2021/04/21 08:49:40;;;;;;;6.97;4.90;;;;;;;27.69;25.53;100742.81;5089298;28;20051;-81
2021/04/21 08:52:51;;;;;;;9.52;5.53;;;;;;;24.63;29.60;100747.34;5100953;28;20047;-81
2021/04/21 08:55:57;;;;;;;8.95;5.38;;;;;;;23.70;31.57;100746.59;5089593;28;20047;-86
2021/04/21 08:59:07;;;;;;;7.60;5.75;;;;;;;24.12;31.66;100745.34;5089485;28;20493;-86
2021/04/21 09:02:15;;;;;;;6.70;5.18;;;;;;;23.29;32.67;100741.25;5093891;28;20062;-78
2021/04/21 09:05:22;;;;;;;9.38;5.70;;;;;;;22.72;34.13;100749.06;5102875;28;20070;-78
2021/04/21 09:08:29;;;;;;;6.80;5.78;;;;;;;22.56;33.45;100744.75;5103195;28;20054;-84
2021/04/21 09:11:35;;;;;;;8.20;5.45;;;;;;;22.27;33.86;100747.72;5105238;28;20046;-82
2021/04/21 09:14:39;;;;;;;6.93;5.32;;;;;;;22.40;34.11;100744.22;5100907;28;20097;-88
2021/04/21 09:17:46;;;;;;;9.23;5.50;;;;;;;22.64;33.63;100741.84;5104349;28;20039;-87
2021/04/21 09:20:52;;;;;;;8.20;5.75;;;;;;;21.80;35.22;100744.84;5092531;28;20927;-82
2021/04/21 09:23:59;;;;;;;7.13;5.63;;;;;;;21.41;35.42;100748.03;5062523;28;20396;-82
2021/04/21 09:27:34;;;;;;;8.75;6.57;;;;;;;21.53;36.06;100748.38;5039469;28;20411;-85
2021/04/21 09:30:40;;;;;;;11.68;7.60;;;;;;;21.17;35.60;100743.81;5039190;28;20059;-83
2021/04/21 09:33:46;;;;;;;8.15;6.30;;;;;;;21.05;36.59;100745.34;5039407;28;20048;-86
2021/04/21 09:36:51;;;;;;;8.68;6.53;;;;;;;20.92;36.75;100739.72;5056001;28;20051;-83
2021/04/21 09:39:55;;;;;;;13.13;7.72;;;;;;;20.32;38.11;100742.69;5067157;28;20043;-83
2021/04/21 09:43:01;;;;;;;7.93;6.22;;;;;;;20.86;37.69;100735.03;5038924;28;20051;-77
2021/04/21 09:46:17;;;;;;;11.52;7.07;;;;;;;20.90;37.40;100730.88;5070743;28;20102;-83
2021/04/21 09:49:37;;;;;;;8.48;5.80;;;;;;;21.42;37.31;100729.78;5090363;28;20051;-78
2021/04/21 09:52:42;;;;;;;7.35;6.22;;;;;;;21.65;35.18;100727.69;5084080;28;20051;-80
2021/04/21 09:56:25;;;;;;;8.40;5.45;;;;;;;21.08;34.67;100730.47;5118738;27;20046;-84
2021/04/21 09:59:30;;;;;;;7.60;6.32;;;;;;;21.39;36.12;100725.53;5115856;28;20047;-76
2021/04/21 10:02:40;;;;;;;10.43;6.90;;;;;;;21.03;37.37;100724.72;5122225;27;20062;-77
2021/04/21 10:05:45;;;;;;;8.40;7.10;;;;;;;20.76;37.67;100732.56;5115851;28;20042;-77
2021/04/21 10:08:49;;;;;;;9.25;6.97;;;;;;;21.21;36.33;100720.53;5133331;27;20046;-76
2021/04/21 10:12:21;;;;;;;8.90;7.35;;;;;;;20.77;36.87;100725.25;5135566;27;20054;-76
2021/04/21 10:15:31;;;;;;;8.50;6.55;;;;;;;20.95;37.28;100720.22;5135853;27;20046;-78
2021/04/21 10:18:35;;;;;;;9.35;7.65;;;;;;;20.69;37.45;100722.63;5134384;27;20449;-77
2021/04/21 10:21:40;;;;;;;8.35;6.55;;;;;;;20.92;36.13;100714.28;5135325;27;20370;-77
2021/04/21 10:24:47;;;;;;;8.68;6.82;;;;;;;20.96;36.16;100724.63;5135796;27;20054;-86
2021/04/21 10:27:53;;;;;;;8.18;7.20;;;;;;;21.05;36.51;100709.00;5133893;27;20054;-83
2021/04/21 10:30:58;;;;;;;9.93;8.13;;;;;;;20.55;38.31;100713.44;5135824;27;20406;-80
2021/04/21 10:34:05;;;;;;;11.13;7.68;;;;;;;20.81;38.33;100712.94;5135333;27;20051;-83
2021/04/21 10:37:12;;;;;;;9.68;7.90;;;;;;;20.85;37.79;100705.19;5120923;27;20042;-83
2021/04/21 10:40:29;;;;;;;11.15;7.93;;;;;;;20.40;38.15;100706.28;5114242;28;20046;-78
2021/04/21 10:43:39;;;;;;;8.10;6.53;;;;;;;20.41;36.23;100708.00;5115174;28;20050;-85
2021/04/21 10:47:08;;;;;;;9.35;6.57;;;;;;;20.41;34.76;100703.41;5120789;27;20050;-77
2021/04/21 10:50:14;;;;;;;8.25;6.22;;;;;;;20.67;35.47;100697.41;5131870;27;20070;-79
2021/04/21 10:53:44;;;;;;;10.32;7.32;;;;;;;20.53;36.93;100695.56;5132813;27;20054;-77
2021/04/21 10:56:48;;;;;;;11.20;7.43;;;;;;;20.11;37.08;100694.34;5135149;27;20046;-79
2021/04/21 11:00:15;;;;;;;9.52;7.85;;;;;;;19.45;37.29;100692.44;5134330;27;20066;-78
2021/04/21 11:03:26;;;;;;;9.32;6.90;;;;;;;19.45;37.82;100688.91;5113537;28;20062;-82
2021/04/21 11:06:41;;;;;;;12.23;8.00;;;;;;;19.58;38.54;100682.84;5122597;27;20070;-82
2021/04/21 11:09:55;;;;;;;11.15;6.80;;;;;;;19.99;38.92;100678.66;5155917;27;20054;-78
2021/04/21 11:12:59;;;;;;;9.00;7.25;;;;;;;19.82;37.23;100683.44;5155304;27;20042;-77
2021/04/21 11:16:29;;;;;;;9.02;6.45;;;;;;;19.77;37.34;100666.81;5148276;27;20041;-79
2021/04/21 11:19:42;;;;;;;9.85;6.78;;;;;;;19.98;35.94;100669.63;5132312;27;20042;-81
2021/04/21 11:22:47;;;;;;;10.15;6.88;;;;;;;20.27;35.06;100663.34;5137183;27;20053;-79
2021/04/21 11:25:51;;;;;;;10.75;7.63;;;;;;;20.34;36.27;100668.91;5152077;27;20042;-83
2021/04/21 11:29:08;;;;;;;11.43;8.63;;;;;;;20.21;37.04;100671.41;5152140;27;20397;-82
2021/04/21 11:32:14;;;;;;;11.20;7.45;;;;;;;20.21;37.34;100665.94;5150917;27;20404;-82
2021/04/21 11:35:32;;;;;;;10.95;7.63;;;;;;;20.02;36.04;100654.56;5154313;27;20050;-80
2021/04/21 11:38:41;;;;;;;9.77;6.68;;;;;;;20.01;36.10;100655.63;5154853;27;20500;-78
2021/04/21 11:41:47;;;;;;;11.43;6.50;;;;;;;20.22;37.02;100659.47;5153791;27;20053;-78
2021/04/21 11:45:17;;;;;;;8.15;6.00;;;;;;;20.26;34.45;100650.75;5153280;27;20203;-77
2021/04/21 11:48:22;;;;;;;12.10;5.45;;;;;;;20.30;35.50;100653.94;5152515;27;20516;-78
2021/04/21 11:51:46;;;;;;;11.27;6.10;;;;;;;20.03;35.52;100645.38;5130457;27;20504;-77
2021/04/21 11:54:50;;;;;;;9.40;5.93;;;;;;;20.59;35.33;100641.09;5154302;27;20050;-77
2021/04/21 11:57:58;;;;;;;9.07;6.95;;;;;;;20.53;34.96;100647.31;5154905;27;20046;-76
2021/04/21 12:01:03;;;;;;;8.50;7.13;;;;;;;20.07;34.67;100646.69;5154917;27;20050;-76
2021/04/21 12:04:11;;;;;;;8.55;5.72;;;;;;;20.46;34.89;100637.38;5155228;27;20065;-83
2021/04/21 12:07:20;;;;;;;13.15;6.70;;;;;;;20.48;34.78;100643.47;5154970;27;20053;-76
2021/04/21 12:10:29;;;;;;;9.15;6.18;;;;;;;20.04;34.98;100641.63;5155571;27;20054;-77
2021/04/21 12:13:44;;;;;;;9.65;6.65;;;;;;;20.01;35.68;100633.84;5155063;27;20128;-77
2021/04/21 12:16:49;;;;;;;7.85;5.93;;;;;;;20.07;35.30;100643.13;5155370;27;20046;-76
2021/04/21 12:19:54;;;;;;;9.80;7.18;;;;;;;20.25;36.29;100638.16;5155327;27;20100;-75
2021/04/21 12:22:59;;;;;;;12.18;8.65;;;;;;;19.99;37.48;100641.34;5155090;27;20049;-78
2021/04/21 12:26:15;;;;;;;12.90;8.00;;;;;;;19.98;37.90;100636.94;5155619;27;20157;-77
2021/04/21 12:29:21;;;;;;;10.93;8.57;;;;;;;20.17;36.88;100646.41;5154917;27;20061;-86
2021/04/21 12:32:27;;;;;;;11.10;8.15;;;;;;;20.05;36.66;100645.19;5154830;27;20499;-81
2021/04/21 12:35:32;;;;;;;11.00;8.18;;;;;;;20.20;36.92;100634.25;5146795;27;20041;-83
2021/04/21 12:38:39;;;;;;;9.10;8.20;;;;;;;19.93;37.12;100635.78;5153989;27;20050;-82
2021/04/21 12:41:58;;;;;;;10.98;7.78;;;;;;;19.98;36.53;100631.47;5154141;27;20054;-79
2021/04/21 12:45:02;;;;;;;10.25;7.80;;;;;;;20.16;36.16;100628.38;5156446;27;20045;-78
2021/04/21 12:48:27;;;;;;;9.35;7.65;;;;;;;20.01;36.79;100632.97;5157823;27;20042;-77
2021/04/21 12:51:32;;;;;;;10.13;8.00;;;;;;;19.78;36.98;100619.44;5158277;27;20045;-78
2021/04/21 12:54:44;;;;;;;12.55;7.75;;;;;;;19.65;36.64;100624.72;5157702;27;20049;-76
2021/04/21 12:57:51;;;;;;;10.20;8.73;;;;;;;19.37;36.91;100620.91;5158137;27;20041;-83
2021/04/21 13:01:21;;;;;;;11.05;8.57;;;;;;;19.27;37.89;100614.84;5158665;27;20504;-77
2021/04/21 13:04:39;;;;;;;10.15;7.28;;;;;;;19.52;37.38;100612.75;5158715;27;20065;-76
2021/04/21 13:07:43;;;;;;;9.18;8.13;;;;;;;19.33;37.71;100614.94;5158458;27;20046;-78
2021/04/21 13:10:48;;;;;;;12.38;7.43;;;;;;;19.20;38.18;100612.03;5157371;27;20392;-82
2021/04/21 13:13:52;;;;;;;8.90;7.90;;;;;;;19.19;38.28;100612.19;5158390;27;20088;-78
2021/04/21 13:16:57;;;;;;;14.13;8.18;;;;;;;19.18;38.33;100610.50;5158316;27;20393;-82
2021/04/21 13:20:03;;;;;;;10.15;7.63;;;;;;;19.14;38.18;100596.41;5158599;27;20054;-88
2021/04/21 13:23:18;;;;;;;11.30;7.78;;;;;;;19.28;38.36;100594.78;5137433;27;20530;-81
2021/04/21 13:26:22;;;;;;;9.63;7.95;;;;;;;19.29;37.90;100593.72;5148262;27;20050;-82
2021/04/21 13:29:35;;;;;;;9.50;7.38;;;;;;;19.18;37.18;100589.56;5158574;27;20049;-79
2021/04/21 13:32:50;;;;;;;9.05;7.45;;;;;;;19.12;37.73;100594.91;5158530;27;20058;-80
2021/04/21 13:35:55;;;;;;;9.13;6.57;;;;;;;19.40;37.87;100593.31;5155171;27;20053;-81
2021/04/21 13:38:59;;;;;;;9.48;7.13;;;;;;;19.52;37.35;100582.81;5157826;27;20049;-80
2021/04/21 13:42:05;;;;;;;9.07;6.82;;;;;;;19.65;36.74;100585.75;5157556;27;20050;-80
2021/04/21 13:45:12;;;;;;;7.22;6.00;;;;;;;19.66;36.73;100581.97;5157743;27;20038;-80
2021/04/21 13:48:16;;;;;;;8.98;6.80;;;;;;;19.74;36.31;100576.44;5156992;27;20050;-78
2021/04/21 13:51:20;;;;;;;9.98;7.25;;;;;;;19.73;36.69;100574.72;5157316;27;20100;-78
2021/04/21 13:54:25;;;;;;;10.10;7.28;;;;;;;19.56;36.66;100565.06;5157800;27;20046;-77
2021/04/21 13:57:29;;;;;;;9.00;7.50;;;;;;;19.54;37.08;100562.53;5156602;27;20108;-79
2021/04/21 14:00:34;;;;;;;8.20;6.63;;;;;;;19.72;37.45;100554.84;5157618;27;20042;-81
2021/04/21 14:03:38;;;;;;;7.80;5.85;;;;;;;19.37;37.71;100556.44;5157494;27;20065;-80
2021/04/21 14:06:42;;;;;;;7.65;5.43;;;;;;;19.22;38.50;100560.97;5156242;27;20050;-78
2021/04/21 14:09:47;;;;;;;8.07;5.22;;;;;;;19.35;38.64;100557.59;5157181;27;20046;-88
2021/04/21 14:12:52;;;;;;;7.32;4.60;;;;;;;19.58;37.34;100552.13;5157251;27;20054;-81
2021/04/21 14:15:57;;;;;;;7.28;4.45;;;;;;;19.42;37.30;100553.13;5144491;27;20038;-77
2021/04/21 14:19:02;;;;;;;6.82;3.30;;;;;;;19.26;36.64;100548.66;5156862;27;20058;-87
2021/04/21 14:22:09;;;;;;;5.38;3.78;;;;;;;19.20;37.04;100545.84;5156705;27;20053;-88
2021/04/21 14:25:17;;;;;;;5.95;3.42;;;;;;;19.31;37.07;100545.38;5144299;27;20051;-79
2021/04/21 14:28:21;;;;;;;4.55;3.75;;;;;;;19.37;35.40;100537.38;5143951;27;20049;-77
2021/04/21 14:31:26;;;;;;;7.07;3.97;;;;;;;19.37;35.99;100540.09;5156887;27;20420;-85
2021/04/21 14:34:30;;;;;;;6.80;3.25;;;;;;;19.35;34.98;100535.84;5157144;27;20051;-86
2021/04/21 14:37:35;;;;;;;4.78;3.05;;;;;;;19.25;35.59;100536.09;5154786;27;20076;-88
2021/04/21 14:40:39;;;;;;;3.40;2.38;;;;;;;19.31;35.53;100534.50;5157176;27;20065;-83
2021/04/21 14:43:43;;;;;;;3.40;2.25;;;;;;;19.26;35.75;100529.63;5157037;27;20057;-82
2021/04/21 14:46:48;;;;;;;5.85;4.30;;;;;;;19.39;35.67;100529.84;5156486;27;20496;-80
2021/04/21 14:49:54;;;;;;;4.28;2.90;;;;;;;19.35;35.81;100525.78;5132267;27;20046;-82